Posadas, Argentina

5:16 AM ART en Noviembre 01, 2014 (GMT -0300)
Liberador Gral D Jose De San M | Change Station
CLOSE
Current Station
Aeropuerto
Location: Posadas,
Altura: 430 ft
Estaciones meteorológicas cercanas

Alt 430 ft 27.39 °S, 55.97 °W | Updated 16 minutes ago

Clear
Despejado
70 ° F
Sensación térmica 70 ° F
N
7
Viento Variable Viento desde ESE

Hoy
Alta -- | Baja -- ° F
--% Posibilidad de precipitaciones
Ayer
Alta -- | Baja -- ° F
Precip. -- pul
5:52 AM 7:02 PM
Gibosa creciente, 64% visible
Presión 29.83 pul
Visibilidad -9999.0 Millas
Nubes
Punto de rocío 68 ° F
Humedad 94%
Precipitaciones 0.00 pul
Espesor de la nieve No disponible.
UV No disponible.
Polen No disponible.
Calidad del aire No disponible.
Flu Activity No disponible.
METAR SARP 010800Z 11006KT CAVOK 21/20 Q1010

More Conditions Fewer Conditions

Presión 29.83 pul
Visibilidad -9999.0 Millas
Nubes
Punto de rocío 68 ° F
Humedad 94%
Precipitaciones 0.00 pul
Espesor de la nieve No disponible.
UV No disponible.
Polen No disponible.
Calidad del aire No disponible.
Flu Activity No disponible.
METAR SARP 010800Z 11006KT CAVOK 21/20 Q1010

More Conditions Fewer Conditions

10-Day Weather Forecast

Almanac

Astronomía

Nov. 01, 2014 Salida Puesta
Hora real
Crepúsculo civil
Crepúsculo náutico
Crepúsculo astronómico
Luna
Horas de luz
Horas de luz
Tomorrow will be .
, % of the Moon is Illuminated

Extremos de hoy

Máximos del país Bajas del país

Community

WunderPhotos

Upload Photos

1,766,866 ¡fotos cargadas!

WunderBlogs® & News

Nearby

Calidad del aire

  Calidad del aire Índice AQ Contaminante
Not available.

Grosos de nieve

Estación Profundido Altura

Actividad de terremotos

Ciudad Distance Mag. Tiempo y dato
Magnitud mínima muestra es 2,5.

Temperaturas de aguas costeras

Lugar Temperatura

Estaciones meteorológicas cercanas